createdAt,value
2022-12-29T00:02:23.957Z,2.83
2022-12-29T00:04:51.630Z,3.63
2022-12-29T00:07:19.276Z,2.53
2022-12-29T00:09:46.039Z,2.80
2022-12-29T00:12:12.820Z,2.90
2022-12-29T00:14:58.268Z,2.30
2022-12-29T00:17:24.929Z,2.60
2022-12-29T00:20:09.932Z,2.40
2022-12-29T00:22:55.267Z,1.97
2022-12-29T00:25:40.746Z,2.50
2022-12-29T00:28:45.324Z,2.13
2022-12-29T00:31:31.943Z,2.00
2022-12-29T00:34:18.050Z,2.80
2022-12-29T00:36:45.386Z,2.73
2022-12-29T00:39:37.801Z,2.30
2022-12-29T00:42:21.067Z,2.50
2022-12-29T00:44:47.875Z,2.40
2022-12-29T00:47:14.604Z,2.20
2022-12-29T00:49:41.278Z,2.50
2022-12-29T00:52:10.873Z,2.40
2022-12-29T00:54:39.684Z,2.27
2022-12-29T00:57:08.166Z,3.00
2022-12-29T00:59:42.758Z,2.80
2022-12-29T01:02:11.031Z,2.53
2022-12-29T01:04:38.094Z,3.30
2022-12-29T01:07:05.089Z,2.50
2022-12-29T01:09:51.043Z,1.93
2022-12-29T01:12:17.999Z,2.30
2022-12-29T01:14:45.052Z,2.40
2022-12-29T01:17:11.710Z,2.30
2022-12-29T01:19:39.232Z,2.50
2022-12-29T01:22:05.919Z,2.97
2022-12-29T01:24:32.679Z,2.30
2022-12-29T01:26:59.419Z,4.17
2022-12-29T01:29:26.121Z,4.30
2022-12-29T01:31:52.938Z,7.73
2022-12-29T01:34:19.831Z,3.77
2022-12-29T01:36:46.637Z,4.20
2022-12-29T01:39:14.386Z,2.40
2022-12-29T01:41:42.463Z,2.17
2022-12-29T01:44:46.746Z,4.47
2022-12-29T01:47:26.489Z,2.50
2022-12-29T01:49:58.991Z,2.47
2022-12-29T01:52:29.168Z,2.83
2022-12-29T01:54:58.737Z,2.00
2022-12-29T01:57:30.703Z,2.53
2022-12-29T02:00:02.331Z,2.20
2022-12-29T02:02:41.470Z,2.13
2022-12-29T02:05:15.291Z,2.00
2022-12-29T02:07:43.229Z,2.90
2022-12-29T02:10:11.004Z,1.93
2022-12-29T02:12:37.833Z,2.30
2022-12-29T02:15:05.210Z,2.03
2022-12-29T02:17:57.929Z,1.90
2022-12-29T02:20:50.830Z,1.73
2022-12-29T02:23:39.371Z,2.80
2022-12-29T02:26:32.437Z,1.63
2022-12-29T02:29:22.115Z,2.40
2022-12-29T02:32:08.873Z,1.90
2022-12-29T02:34:58.571Z,2.00
2022-12-29T02:37:49.140Z,2.93
2022-12-29T02:40:26.240Z,2.30
2022-12-29T02:43:25.511Z,2.03
2022-12-29T02:45:59.726Z,1.77
2022-12-29T02:48:33.660Z,2.20
2022-12-29T02:51:04.417Z,1.87
2022-12-29T02:53:53.876Z,1.60
2022-12-29T02:56:20.779Z,2.20
2022-12-29T02:58:47.558Z,3.10
2022-12-29T03:01:32.688Z,2.30
2022-12-29T03:04:14.886Z,1.80
2022-12-29T03:07:13.294Z,2.60
2022-12-29T03:09:48.709Z,2.00
2022-12-29T03:12:24.588Z,1.97
2022-12-29T03:15:21.448Z,2.07
2022-12-29T03:18:11.610Z,2.07
2022-12-29T03:20:53.433Z,2.00
2022-12-29T03:23:22.786Z,2.40
2022-12-29T03:25:55.373Z,2.33
2022-12-29T03:28:27.143Z,1.80
2022-12-29T03:30:55.828Z,2.20
2022-12-29T03:33:26.349Z,1.93
2022-12-29T03:36:00.163Z,1.90
2022-12-29T03:38:38.910Z,2.47
2022-12-29T03:41:10.381Z,2.50
2022-12-29T03:43:37.128Z,1.83
2022-12-29T03:46:03.887Z,2.17
2022-12-29T03:48:30.674Z,1.80
2022-12-29T03:50:57.308Z,2.00
2022-12-29T03:53:24.084Z,1.63
2022-12-29T03:55:51.364Z,1.97
2022-12-29T03:58:18.040Z,2.07
2022-12-29T04:01:08.183Z,1.70
2022-12-29T04:03:37.756Z,2.20
2022-12-29T04:06:05.694Z,2.20
2022-12-29T04:08:56.930Z,2.03
2022-12-29T04:11:28.320Z,1.87
2022-12-29T04:13:58.586Z,1.60
2022-12-29T04:16:27.098Z,1.80
2022-12-29T04:18:53.743Z,2.20
2022-12-29T04:21:21.110Z,2.13
2022-12-29T04:23:48.615Z,1.77
2022-12-29T04:26:17.189Z,1.70
2022-12-29T04:28:54.855Z,1.70
2022-12-29T04:31:33.688Z,1.80
2022-12-29T04:34:01.815Z,1.80
2022-12-29T04:36:30.338Z,1.50
2022-12-29T04:38:57.812Z,2.03
2022-12-29T04:41:25.340Z,1.60
2022-12-29T04:43:52.199Z,1.57
2022-12-29T04:46:37.329Z,1.80
2022-12-29T04:49:30.047Z,1.40
2022-12-29T04:52:09.287Z,1.60
2022-12-29T04:54:37.327Z,2.03
2022-12-29T04:57:12.454Z,2.10
2022-12-29T04:59:46.042Z,1.80
2022-12-29T05:02:12.960Z,2.17
2022-12-29T05:04:39.954Z,1.80
2022-12-29T05:07:07.209Z,1.80
2022-12-29T05:09:34.586Z,1.60
2022-12-29T05:12:01.939Z,1.60
2022-12-29T05:14:30.132Z,2.87
2022-12-29T05:16:57.032Z,1.83
2022-12-29T05:19:25.624Z,1.70
2022-12-29T05:21:52.792Z,1.80
2022-12-29T05:24:19.543Z,1.73
2022-12-29T05:26:46.220Z,1.70
2022-12-29T05:29:31.531Z,1.40
2022-12-29T05:31:58.658Z,1.80
2022-12-29T05:34:25.663Z,2.30
2022-12-29T05:36:52.398Z,1.90
2022-12-29T05:39:19.341Z,1.70
2022-12-29T05:41:51.124Z,1.90
2022-12-29T05:44:50.993Z,1.60
2022-12-29T05:47:24.749Z,1.80
2022-12-29T05:50:10.331Z,1.80
2022-12-29T05:52:55.578Z,2.87
2022-12-29T05:55:22.641Z,1.63
2022-12-29T05:57:52.327Z,1.63
2022-12-29T06:00:19.185Z,1.67
2022-12-29T06:02:47.433Z,2.10
2022-12-29T06:05:15.972Z,2.10
2022-12-29T06:07:42.981Z,1.80
2022-12-29T06:10:10.234Z,2.00
2022-12-29T06:12:45.197Z,1.90
2022-12-29T06:15:12.047Z,1.70
2022-12-29T06:17:41.612Z,1.70
2022-12-29T06:20:09.336Z,1.93
2022-12-29T06:22:36.332Z,1.80
2022-12-29T06:25:05.433Z,2.23
2022-12-29T06:27:34.458Z,1.60
2022-12-29T06:30:01.097Z,1.80
2022-12-29T06:32:31.617Z,1.60
2022-12-29T06:35:05.591Z,1.83
2022-12-29T06:37:32.709Z,1.70
2022-12-29T06:39:59.586Z,1.80
2022-12-29T06:42:33.977Z,1.97
2022-12-29T06:45:17.062Z,1.67
2022-12-29T06:47:44.156Z,2.10
2022-12-29T06:50:10.805Z,1.70
2022-12-29T06:52:37.435Z,1.90
2022-12-29T06:55:04.553Z,1.90
2022-12-29T06:57:31.166Z,2.23
2022-12-29T06:59:57.885Z,1.77
2022-12-29T07:02:26.503Z,2.00
2022-12-29T07:04:54.132Z,2.17
2022-12-29T07:07:21.701Z,2.00
2022-12-29T07:09:48.549Z,1.50
2022-12-29T07:12:15.322Z,2.77
2022-12-29T07:14:43.555Z,1.70
2022-12-29T07:17:10.642Z,2.13
2022-12-29T07:19:37.475Z,1.80
2022-12-29T07:22:04.134Z,1.90
2022-12-29T07:24:30.847Z,1.63
2022-12-29T07:26:57.576Z,1.80
2022-12-29T07:29:24.323Z,2.03
2022-12-29T07:31:51.048Z,1.53
2022-12-29T07:34:17.759Z,2.00
2022-12-29T07:36:44.448Z,1.80
2022-12-29T07:39:12.542Z,1.80
2022-12-29T07:41:39.356Z,1.70
2022-12-29T07:44:10.113Z,1.90
2022-12-29T07:46:59.948Z,2.10
2022-12-29T07:49:27.341Z,1.77
2022-12-29T07:51:54.178Z,2.10
2022-12-29T07:54:20.933Z,1.87
2022-12-29T07:56:47.749Z,1.70
2022-12-29T07:59:14.342Z,2.20
2022-12-29T08:01:41.296Z,2.03
2022-12-29T08:04:08.428Z,2.10
2022-12-29T08:06:35.160Z,2.30
2022-12-29T08:09:09.882Z,2.13
2022-12-29T08:11:39.364Z,2.10
2022-12-29T08:14:06.078Z,1.80
2022-12-29T08:16:33.530Z,2.27
2022-12-29T08:19:00.470Z,2.40
2022-12-29T08:21:30.647Z,2.20
2022-12-29T08:23:57.491Z,2.20
2022-12-29T08:26:24.212Z,2.10
2022-12-29T08:28:53.590Z,2.60
2022-12-29T08:31:20.598Z,2.50
2022-12-29T08:33:47.297Z,2.60
2022-12-29T08:36:13.993Z,3.20
2022-12-29T08:38:40.661Z,2.90
2022-12-29T08:41:07.669Z,2.90
2022-12-29T08:43:34.355Z,2.60
2022-12-29T08:46:01.424Z,3.27
2022-12-29T08:48:28.219Z,4.50
2022-12-29T08:50:54.866Z,3.60
2022-12-29T08:53:21.641Z,3.33
2022-12-29T08:56:02.123Z,6.43
2022-12-29T08:58:34.723Z,5.20
2022-12-29T09:01:01.814Z,3.07
2022-12-29T09:04:04.534Z,3.37
2022-12-29T09:06:17.706Z,7.07
2022-12-29T09:08:45.473Z,2.70
2022-12-29T09:11:13.886Z,2.63
2022-12-29T09:13:40.677Z,2.90
2022-12-29T09:16:07.894Z,3.10
2022-12-29T09:18:35.801Z,2.50
2022-12-29T09:21:05.623Z,3.30
2022-12-29T09:23:33.040Z,2.70
2022-12-29T09:25:59.909Z,3.10
2022-12-29T09:28:26.877Z,5.87
2022-12-29T09:30:53.832Z,5.63
2022-12-29T09:33:20.561Z,6.80
2022-12-29T09:35:52.452Z,3.80
2022-12-29T09:38:19.545Z,3.80
2022-12-29T09:40:56.749Z,3.90
2022-12-29T09:44:00.461Z,8.90
2022-12-29T09:46:30.672Z,3.70
2022-12-29T09:49:18.825Z,3.00
2022-12-29T09:51:51.803Z,3.03
2022-12-29T09:54:28.033Z,3.27
2022-12-29T09:56:56.319Z,3.50
2022-12-29T09:59:28.044Z,2.80
2022-12-29T10:02:13.312Z,2.73
2022-12-29T10:04:42.855Z,2.10
2022-12-29T10:07:31.757Z,2.40
2022-12-29T10:10:11.078Z,2.07
2022-12-29T10:13:02.318Z,2.07
2022-12-29T10:15:49.080Z,2.57
2022-12-29T10:18:53.501Z,2.00
2022-12-29T10:21:47.170Z,2.50
2022-12-29T10:24:14.243Z,2.10
2022-12-29T10:26:43.341Z,2.30
2022-12-29T10:29:46.889Z,4.03
2022-12-29T10:32:36.332Z,2.30
2022-12-29T10:35:18.530Z,2.30
2022-12-29T10:38:14.026Z,2.23
2022-12-29T10:40:46.244Z,2.60
2022-12-29T10:43:27.066Z,2.67
2022-12-29T10:45:59.539Z,2.10
2022-12-29T10:48:32.227Z,2.40
2022-12-29T10:51:02.672Z,2.27
2022-12-29T10:53:48.400Z,2.30
2022-12-29T10:56:34.118Z,2.07
2022-12-29T10:59:14.300Z,2.60
2022-12-29T11:02:16.949Z,1.80
2022-12-29T11:05:08.362Z,2.63
2022-12-29T11:07:36.909Z,3.00
2022-12-29T11:10:37.936Z,2.83
2022-12-29T11:13:26.267Z,3.50
2022-12-29T11:15:53.199Z,3.40
2022-12-29T11:18:24.526Z,4.10
2022-12-29T11:20:57.039Z,3.10
2022-12-29T11:23:27.455Z,2.83
2022-12-29T11:26:17.924Z,6.30
2022-12-29T11:28:47.506Z,2.90
2022-12-29T11:31:18.729Z,4.37
2022-12-29T11:33:46.025Z,4.13
2022-12-29T11:36:20.066Z,3.67
2022-12-29T11:38:51.448Z,2.90
2022-12-29T11:41:25.003Z,2.70
2022-12-29T11:43:53.667Z,4.23
2022-12-29T11:46:28.365Z,3.43
2022-12-29T11:49:00.328Z,2.70
2022-12-29T11:51:44.022Z,3.23
2022-12-29T11:54:22.923Z,3.33
2022-12-29T11:56:50.078Z,2.77
2022-12-29T11:59:56.026Z,3.60
2022-12-29T12:02:44.122Z,2.97
2022-12-29T12:05:19.117Z,4.10
2022-12-29T12:07:50.925Z,3.20
2022-12-29T12:10:23.599Z,2.60
2022-12-29T12:13:02.737Z,3.60
2022-12-29T12:15:43.448Z,2.30
2022-12-29T12:18:32.768Z,2.70
2022-12-29T12:21:24.178Z,2.20
2022-12-29T12:24:02.939Z,2.23
2022-12-29T12:26:36.136Z,2.63
2022-12-29T12:29:20.219Z,2.50
2022-12-29T12:31:55.575Z,2.40
2022-12-29T12:34:39.645Z,2.60
2022-12-29T12:37:36.351Z,3.03
2022-12-29T12:40:36.355Z,2.70
2022-12-29T12:43:11.249Z,2.90
2022-12-29T12:46:07.894Z,1.80
2022-12-29T12:49:06.592Z,3.30
2022-12-29T12:52:30.497Z,2.43
2022-12-29T12:55:07.512Z,2.13
2022-12-29T12:58:04.909Z,2.47
2022-12-29T13:01:02.061Z,2.67
2022-12-29T13:03:53.719Z,2.20
2022-12-29T13:06:51.039Z,2.83
2022-12-29T13:09:32.747Z,2.13
2022-12-29T13:12:20.872Z,2.23
2022-12-29T13:15:09.124Z,3.13
2022-12-29T13:17:50.587Z,2.10
2022-12-29T13:20:38.947Z,2.13
2022-12-29T13:23:24.577Z,1.70
2022-12-29T13:25:55.157Z,2.27
2022-12-29T13:28:33.219Z,1.80
2022-12-29T13:31:25.758Z,2.00
2022-12-29T13:33:56.385Z,1.53
2022-12-29T13:36:29.228Z,2.17
2022-12-29T13:39:05.122Z,3.03
2022-12-29T13:41:41.178Z,2.13
2022-12-29T13:44:16.639Z,1.70
2022-12-29T13:46:47.695Z,1.73
2022-12-29T13:49:17.947Z,2.10
2022-12-29T13:52:00.265Z,1.90
2022-12-29T13:54:30.025Z,1.60
2022-12-29T13:57:13.096Z,1.50
2022-12-29T14:00:02.652Z,1.80
2022-12-29T14:02:48.337Z,1.87
2022-12-29T14:05:21.253Z,1.80
2022-12-29T14:07:49.603Z,1.87
2022-12-29T14:10:30.358Z,1.70
2022-12-29T14:13:13.702Z,2.17
2022-12-29T14:15:43.293Z,1.73
2022-12-29T14:18:17.544Z,1.80
2022-12-29T14:21:06.075Z,1.70
2022-12-29T14:23:35.432Z,1.93
2022-12-29T14:26:08.191Z,2.47
2022-12-29T14:28:39.942Z,3.70
2022-12-29T14:31:15.920Z,4.30
2022-12-29T14:34:11.507Z,4.07
2022-12-29T14:36:39.729Z,5.23
2022-12-29T14:39:28.835Z,4.30
2022-12-29T14:42:10.669Z,4.33
2022-12-29T14:44:57.420Z,7.77
2022-12-29T14:47:44.696Z,3.60
2022-12-29T14:50:11.444Z,4.30
2022-12-29T14:53:02.011Z,3.20
2022-12-29T14:55:39.494Z,3.17
2022-12-29T14:58:14.149Z,3.87
2022-12-29T15:00:42.498Z,3.57
2022-12-29T15:03:18.739Z,3.40
2022-12-29T15:05:49.689Z,4.40
2022-12-29T15:08:23.863Z,3.03
2022-12-29T15:11:02.449Z,3.67
2022-12-29T15:13:38.588Z,3.33
2022-12-29T15:16:06.677Z,2.90
2022-12-29T15:18:34.630Z,2.23
2022-12-29T15:21:04.493Z,2.50
2022-12-29T15:23:33.428Z,2.57
2022-12-29T15:26:03.360Z,2.33
2022-12-29T15:28:45.260Z,2.57
2022-12-29T15:31:29.441Z,3.37
2022-12-29T15:34:10.819Z,2.37
2022-12-29T15:36:39.731Z,2.17
2022-12-29T15:39:20.794Z,2.93
2022-12-29T15:42:03.322Z,3.13
2022-12-29T15:44:40.520Z,3.00
2022-12-29T15:47:23.183Z,2.23
2022-12-29T15:49:53.762Z,2.80
2022-12-29T15:52:22.574Z,2.30
2022-12-29T15:54:51.613Z,2.77
2022-12-29T15:57:27.643Z,2.70
2022-12-29T15:59:55.010Z,5.27
2022-12-29T16:02:24.460Z,4.33
2022-12-29T16:05:16.732Z,6.30
2022-12-29T16:07:52.291Z,5.20
2022-12-29T16:10:39.805Z,3.53
2022-12-29T16:13:40.399Z,4.50
2022-12-29T16:16:36.649Z,6.97
2022-12-29T16:19:27.163Z,5.43
2022-12-29T16:21:54.286Z,5.50
2022-12-29T16:24:25.197Z,5.73
2022-12-29T16:27:23.144Z,4.53
2022-12-29T16:29:54.285Z,4.40
2022-12-29T16:32:30.519Z,3.00
2022-12-29T16:35:27.266Z,3.60
2022-12-29T16:38:12.556Z,3.90
2022-12-29T16:40:50.472Z,3.97
2022-12-29T16:43:29.466Z,3.30
2022-12-29T16:45:59.194Z,4.30
2022-12-29T16:48:52.192Z,3.17
2022-12-29T16:51:36.788Z,2.87
2022-12-29T16:54:05.498Z,2.70
2022-12-29T16:56:35.654Z,3.80
2022-12-29T16:59:08.602Z,3.50
2022-12-29T17:01:38.553Z,3.33
2022-12-29T17:04:13.889Z,3.47
2022-12-29T17:06:41.256Z,3.13
2022-12-29T17:09:34.179Z,3.07
2022-12-29T17:12:10.813Z,3.37
2022-12-29T17:14:41.635Z,3.30
2022-12-29T17:17:32.583Z,3.27
2022-12-29T17:20:07.500Z,2.60
2022-12-29T17:22:34.202Z,3.83
2022-12-29T17:25:02.613Z,7.97
2022-12-29T17:27:41.712Z,6.63
2022-12-29T17:30:14.512Z,5.73
2022-12-29T17:32:43.379Z,5.67
2022-12-29T17:35:17.613Z,4.77
2022-12-29T17:37:45.026Z,10.43
2022-12-29T17:40:18.647Z,4.97
2022-12-29T17:42:48.223Z,7.13
2022-12-29T17:45:15.601Z,2.80
2022-12-29T17:47:42.571Z,4.70
2022-12-29T17:50:16.885Z,2.93
2022-12-29T17:52:47.031Z,3.77
2022-12-29T17:55:17.371Z,4.73
2022-12-29T17:57:44.836Z,3.20
2022-12-29T18:00:30.860Z,2.97
2022-12-29T18:02:58.527Z,3.00
2022-12-29T18:05:30.827Z,2.80
2022-12-29T18:07:59.364Z,2.93
2022-12-29T18:10:28.552Z,4.97
2022-12-29T18:12:59.712Z,3.40
2022-12-29T18:15:29.245Z,3.23
2022-12-29T18:18:22.640Z,3.37
2022-12-29T18:20:52.506Z,4.33
2022-12-29T18:23:28.175Z,3.83
2022-12-29T18:26:07.879Z,2.60
2022-12-29T18:28:34.675Z,6.10
2022-12-29T18:31:02.090Z,3.13
2022-12-29T18:33:29.813Z,2.87
2022-12-29T18:36:04.919Z,3.10
2022-12-29T18:38:31.733Z,2.57
2022-12-29T18:40:59.703Z,2.90
2022-12-29T18:43:26.332Z,2.50
2022-12-29T18:45:53.117Z,2.27
2022-12-29T18:48:20.617Z,2.63
2022-12-29T18:50:51.908Z,2.70
2022-12-29T18:53:22.159Z,2.37
2022-12-29T18:55:51.400Z,3.47
2022-12-29T18:58:18.595Z,2.20
2022-12-29T19:00:45.996Z,2.67
2022-12-29T19:03:14.725Z,2.80
2022-12-29T19:05:43.124Z,2.67
2022-12-29T19:08:11.092Z,2.70
2022-12-29T19:10:38.611Z,2.43
2022-12-29T19:13:05.674Z,2.13
2022-12-29T19:15:35.992Z,3.00
2022-12-29T19:20:53.459Z,3.10
2022-12-29T19:23:23.891Z,3.80
2022-12-29T19:25:51.624Z,3.47
2022-12-29T19:28:21.656Z,2.70
2022-12-29T19:30:52.266Z,3.43
2022-12-29T19:33:25.170Z,3.63
2022-12-29T19:35:52.958Z,3.80
2022-12-29T19:38:20.237Z,7.23
2022-12-29T19:40:50.232Z,3.30
2022-12-29T19:43:17.912Z,4.00
2022-12-29T19:45:45.312Z,7.07
2022-12-29T19:48:19.141Z,3.43
2022-12-29T19:50:45.844Z,3.30
2022-12-29T19:53:13.253Z,5.30
2022-12-29T19:55:47.616Z,3.53
2022-12-29T19:58:14.922Z,4.53
2022-12-29T20:00:43.297Z,3.83
2022-12-29T20:03:10.808Z,5.00
2022-12-29T20:05:39.292Z,3.33
2022-12-29T20:08:06.512Z,3.37
2022-12-29T20:10:33.505Z,4.07
2022-12-29T20:13:00.287Z,3.03
2022-12-29T20:15:27.089Z,3.70
2022-12-29T20:20:40.640Z,2.83
2022-12-29T20:23:07.339Z,4.80
2022-12-29T20:25:44.683Z,3.40
2022-12-29T20:28:12.349Z,15.70
2022-12-29T20:30:39.026Z,5.17
2022-12-29T20:33:08.404Z,4.70
2022-12-29T20:35:36.376Z,8.20
2022-12-29T20:38:03.652Z,7.87
2022-12-29T20:40:30.340Z,6.80
2022-12-29T20:42:56.989Z,11.33
2022-12-29T20:45:23.725Z,7.97
2022-12-29T20:47:50.360Z,7.40
2022-12-29T20:50:18.570Z,5.53
2022-12-29T20:52:46.664Z,5.03
2022-12-29T20:55:13.324Z,6.30
2022-12-29T20:58:13.976Z,3.60
2022-12-29T21:00:26.803Z,4.23
2022-12-29T21:02:55.467Z,3.50
2022-12-29T21:05:24.945Z,2.47
2022-12-29T21:07:53.458Z,3.27
2022-12-29T21:10:20.984Z,2.90
2022-12-29T21:12:48.506Z,3.43
2022-12-29T21:15:15.786Z,2.10
2022-12-29T21:17:43.812Z,2.40
2022-12-29T21:20:19.680Z,2.43
2022-12-29T21:22:49.893Z,2.90
2022-12-29T21:25:16.647Z,3.13
2022-12-29T21:27:44.187Z,2.87
2022-12-29T21:30:12.024Z,3.00
2022-12-29T21:32:39.455Z,3.03
2022-12-29T21:35:06.704Z,2.90
2022-12-29T21:37:33.584Z,2.77
2022-12-29T21:40:00.269Z,3.17
2022-12-29T21:42:29.882Z,2.80
2022-12-29T21:45:20.167Z,2.60
2022-12-29T21:48:09.003Z,3.60
2022-12-29T21:51:02.331Z,2.50
2022-12-29T21:53:38.755Z,2.70
2022-12-29T21:56:10.032Z,2.40
2022-12-29T21:58:57.082Z,2.73
2022-12-29T22:01:43.665Z,2.57
2022-12-29T22:04:33.584Z,2.77
2022-12-29T22:07:20.321Z,2.50
2022-12-29T22:10:05.765Z,2.53
2022-12-29T22:12:51.361Z,2.80
2022-12-29T22:15:18.550Z,2.40
2022-12-29T22:17:51.161Z,2.63
2022-12-29T22:20:23.216Z,2.70
2022-12-29T22:22:50.014Z,2.20
2022-12-29T22:25:16.956Z,2.93
2022-12-29T22:27:43.809Z,3.00
2022-12-29T22:30:11.496Z,2.60
2022-12-29T22:32:38.589Z,2.17
2022-12-29T22:35:08.318Z,2.60
2022-12-29T22:37:39.504Z,3.03
2022-12-29T22:40:09.753Z,2.20
2022-12-29T22:42:36.978Z,2.47
2022-12-29T22:45:04.214Z,2.20
2022-12-29T22:47:31.229Z,2.93
2022-12-29T22:49:57.907Z,2.30
2022-12-29T22:52:24.638Z,2.33
2022-12-29T22:54:51.475Z,4.17
2022-12-29T22:57:18.126Z,10.83
2022-12-29T22:59:44.838Z,6.20
2022-12-29T23:02:11.707Z,4.57
2022-12-29T23:07:25.380Z,9.20
2022-12-29T23:09:52.069Z,8.13
2022-12-29T23:12:18.808Z,7.03
2022-12-29T23:14:45.491Z,3.23
2022-12-29T23:17:12.130Z,2.70
2022-12-29T23:19:38.725Z,3.13
2022-12-29T23:22:05.434Z,3.50
2022-12-29T23:24:32.108Z,2.77
2022-12-29T23:26:59.153Z,3.03
2022-12-29T23:29:26.055Z,2.73
2022-12-29T23:31:52.807Z,2.77
2022-12-29T23:34:19.556Z,2.83
2022-12-29T23:36:46.629Z,3.27
2022-12-29T23:39:23.302Z,2.73
2022-12-29T23:41:50.966Z,2.60
2022-12-29T23:44:17.724Z,3.00
2022-12-29T23:46:44.473Z,3.37
2022-12-29T23:49:11.299Z,3.03
2022-12-29T23:51:38.004Z,2.97
2022-12-29T23:54:04.836Z,2.57
2022-12-29T23:56:31.646Z,2.50
2022-12-29T23:58:58.576Z,2.33
